sensor_id;sensor_type;location;lat;lon;timestamp;P1;durP1;ratioP1;P2;durP2;ratioP2
65073;SDS011;52218;51.224;-2.328;2022-12-08T00:00:42;8.43;;;4.88;;
65073;SDS011;52218;51.224;-2.328;2022-12-08T00:04:24;8.48;;;4.93;;
65073;SDS011;52218;51.224;-2.328;2022-12-08T00:08:07;9.90;;;5.03;;
65073;SDS011;52218;51.224;-2.328;2022-12-08T00:12:10;7.80;;;4.70;;
65073;SDS011;52218;51.224;-2.328;2022-12-08T00:15:58;8.52;;;4.43;;
65073;SDS011;52218;51.224;-2.328;2022-12-08T00:19:41;12.17;;;5.17;;
65073;SDS011;52218;51.224;-2.328;2022-12-08T00:23:24;11.10;;;5.65;;
65073;SDS011;52218;51.224;-2.328;2022-12-08T00:27:08;9.88;;;5.18;;
65073;SDS011;52218;51.224;-2.328;2022-12-08T00:30:51;12.00;;;5.53;;
65073;SDS011;52218;51.224;-2.328;2022-12-08T00:34:33;9.18;;;4.90;;
65073;SDS011;52218;51.224;-2.328;2022-12-08T00:38:15;8.18;;;5.10;;
65073;SDS011;52218;51.224;-2.328;2022-12-08T00:41:57;8.98;;;4.97;;
65073;SDS011;52218;51.224;-2.328;2022-12-08T00:45:55;10.48;;;5.13;;
65073;SDS011;52218;51.224;-2.328;2022-12-08T00:49:37;8.95;;;4.35;;
65073;SDS011;52218;51.224;-2.328;2022-12-08T00:53:19;8.98;;;4.45;;
65073;SDS011;52218;51.224;-2.328;2022-12-08T00:57:01;7.32;;;4.32;;
65073;SDS011;52218;51.224;-2.328;2022-12-08T01:00:43;9.60;;;4.47;;
65073;SDS011;52218;51.224;-2.328;2022-12-08T01:04:25;9.23;;;4.60;;
65073;SDS011;52218;51.224;-2.328;2022-12-08T01:08:07;7.85;;;4.22;;
65073;SDS011;52218;51.224;-2.328;2022-12-08T01:11:49;7.15;;;4.32;;
65073;SDS011;52218;51.224;-2.328;2022-12-08T01:15:31;6.47;;;3.90;;
65073;SDS011;52218;51.224;-2.328;2022-12-08T01:19:14;8.50;;;4.57;;
65073;SDS011;52218;51.224;-2.328;2022-12-08T01:23:00;8.95;;;4.65;;
65073;SDS011;52218;51.224;-2.328;2022-12-08T01:26:42;8.48;;;4.57;;
65073;SDS011;52218;51.224;-2.328;2022-12-08T01:30:24;7.72;;;3.95;;
65073;SDS011;52218;51.224;-2.328;2022-12-08T01:34:07;7.47;;;4.93;;
65073;SDS011;52218;51.224;-2.328;2022-12-08T01:37:51;8.27;;;4.20;;
65073;SDS011;52218;51.224;-2.328;2022-12-08T01:41:33;7.40;;;4.53;;
65073;SDS011;52218;51.224;-2.328;2022-12-08T01:45:25;8.43;;;4.65;;
65073;SDS011;52218;51.224;-2.328;2022-12-08T01:49:19;6.47;;;4.10;;
65073;SDS011;52218;51.224;-2.328;2022-12-08T01:53:06;9.00;;;4.68;;
65073;SDS011;52218;51.224;-2.328;2022-12-08T01:56:59;7.03;;;4.75;;
65073;SDS011;52218;51.224;-2.328;2022-12-08T02:00:46;7.78;;;4.57;;
65073;SDS011;52218;51.224;-2.328;2022-12-08T02:04:29;7.60;;;3.95;;
65073;SDS011;52218;51.224;-2.328;2022-12-08T02:08:11;7.00;;;3.95;;
65073;SDS011;52218;51.224;-2.328;2022-12-08T02:11:54;6.65;;;4.13;;
65073;SDS011;52218;51.224;-2.328;2022-12-08T02:15:43;7.68;;;4.28;;
65073;SDS011;52218;51.224;-2.328;2022-12-08T02:47:09;6.55;;;4.13;;
65073;SDS011;52218;51.224;-2.328;2022-12-08T02:50:58;8.25;;;3.88;;
65073;SDS011;52218;51.224;-2.328;2022-12-08T02:54:41;6.10;;;3.55;;
65073;SDS011;52218;51.224;-2.328;2022-12-08T03:02:27;7.20;;;3.70;;
65073;SDS011;52218;51.224;-2.328;2022-12-08T03:18:26;8.40;;;3.50;;
65073;SDS011;52218;51.224;-2.328;2022-12-08T03:22:12;7.85;;;3.65;;
65073;SDS011;52218;51.224;-2.328;2022-12-08T03:26:00;6.57;;;3.47;;
65073;SDS011;52218;51.224;-2.328;2022-12-08T03:29:50;5.63;;;3.60;;
65073;SDS011;52218;51.224;-2.328;2022-12-08T03:33:34;9.05;;;3.35;;
65073;SDS011;52218;51.224;-2.328;2022-12-08T03:37:20;7.15;;;3.40;;
65073;SDS011;52218;51.224;-2.328;2022-12-08T03:41:02;6.28;;;3.67;;
65073;SDS011;52218;51.224;-2.328;2022-12-08T03:44:59;6.68;;;3.38;;
65073;SDS011;52218;51.224;-2.328;2022-12-08T03:48:41;7.10;;;3.58;;
65073;SDS011;52218;51.224;-2.328;2022-12-08T03:52:23;5.45;;;3.67;;
65073;SDS011;52218;51.224;-2.328;2022-12-08T04:00:03;7.28;;;3.83;;
65073;SDS011;52218;51.224;-2.328;2022-12-08T04:03:47;5.45;;;3.50;;
65073;SDS011;52218;51.224;-2.328;2022-12-08T04:07:29;6.40;;;3.17;;
65073;SDS011;52218;51.224;-2.328;2022-12-08T04:11:11;6.93;;;3.88;;
65073;SDS011;52218;51.224;-2.328;2022-12-08T04:14:53;9.23;;;4.13;;
65073;SDS011;52218;51.224;-2.328;2022-12-08T04:18:35;9.05;;;4.18;;
65073;SDS011;52218;51.224;-2.328;2022-12-08T04:22:17;6.65;;;3.85;;
65073;SDS011;52218;51.224;-2.328;2022-12-08T04:25:59;5.70;;;3.58;;
65073;SDS011;52218;51.224;-2.328;2022-12-08T04:29:41;6.10;;;3.55;;
65073;SDS011;52218;51.224;-2.328;2022-12-08T04:33:23;5.57;;;3.55;;
65073;SDS011;52218;51.224;-2.328;2022-12-08T04:37:05;5.85;;;3.05;;
65073;SDS011;52218;51.224;-2.328;2022-12-08T04:40:47;6.15;;;3.40;;
65073;SDS011;52218;51.224;-2.328;2022-12-08T04:44:29;6.60;;;3.92;;
65073;SDS011;52218;51.224;-2.328;2022-12-08T04:48:11;7.78;;;3.88;;
65073;SDS011;52218;51.224;-2.328;2022-12-08T04:51:53;6.32;;;3.70;;
65073;SDS011;52218;51.224;-2.328;2022-12-08T04:55:42;7.38;;;3.63;;
65073;SDS011;52218;51.224;-2.328;2022-12-08T04:59:25;7.43;;;4.28;;
65073;SDS011;52218;51.224;-2.328;2022-12-08T05:03:07;6.25;;;3.72;;
65073;SDS011;52218;51.224;-2.328;2022-12-08T05:06:49;6.68;;;4.15;;
65073;SDS011;52218;51.224;-2.328;2022-12-08T05:10:31;7.07;;;3.45;;
65073;SDS011;52218;51.224;-2.328;2022-12-08T05:14:14;8.40;;;3.22;;
65073;SDS011;52218;51.224;-2.328;2022-12-08T05:17:57;5.40;;;3.33;;
65073;SDS011;52218;51.224;-2.328;2022-12-08T05:21:40;5.50;;;3.42;;
65073;SDS011;52218;51.224;-2.328;2022-12-08T05:25:22;4.60;;;3.38;;
65073;SDS011;52218;51.224;-2.328;2022-12-08T05:29:04;9.70;;;3.65;;
65073;SDS011;52218;51.224;-2.328;2022-12-08T05:32:46;7.57;;;3.58;;
65073;SDS011;52218;51.224;-2.328;2022-12-08T05:36:28;5.55;;;3.25;;
65073;SDS011;52218;51.224;-2.328;2022-12-08T05:40:10;5.72;;;3.30;;
65073;SDS011;52218;51.224;-2.328;2022-12-08T05:43:52;9.38;;;3.63;;
65073;SDS011;52218;51.224;-2.328;2022-12-08T05:47:34;5.97;;;3.35;;
65073;SDS011;52218;51.224;-2.328;2022-12-08T05:51:18;7.97;;;3.50;;
65073;SDS011;52218;51.224;-2.328;2022-12-08T05:55:01;6.68;;;3.15;;
65073;SDS011;52218;51.224;-2.328;2022-12-08T05:58:44;6.22;;;3.15;;
65073;SDS011;52218;51.224;-2.328;2022-12-08T06:02:26;4.57;;;3.28;;
65073;SDS011;52218;51.224;-2.328;2022-12-08T06:06:08;6.03;;;3.40;;
65073;SDS011;52218;51.224;-2.328;2022-12-08T06:09:50;5.68;;;3.33;;
65073;SDS011;52218;51.224;-2.328;2022-12-08T06:13:32;6.18;;;3.40;;
65073;SDS011;52218;51.224;-2.328;2022-12-08T06:17:15;5.72;;;3.42;;
65073;SDS011;52218;51.224;-2.328;2022-12-08T06:21:03;9.70;;;3.70;;
65073;SDS011;52218;51.224;-2.328;2022-12-08T06:24:46;4.85;;;2.95;;
65073;SDS011;52218;51.224;-2.328;2022-12-08T06:28:29;6.35;;;3.55;;
65073;SDS011;52218;51.224;-2.328;2022-12-08T06:32:11;7.10;;;3.67;;
65073;SDS011;52218;51.224;-2.328;2022-12-08T06:35:53;6.53;;;3.17;;
65073;SDS011;52218;51.224;-2.328;2022-12-08T06:39:35;5.75;;;3.13;;
65073;SDS011;52218;51.224;-2.328;2022-12-08T06:43:17;4.97;;;3.33;;
65073;SDS011;52218;51.224;-2.328;2022-12-08T06:46:59;7.65;;;3.50;;
65073;SDS011;52218;51.224;-2.328;2022-12-08T06:50:41;4.60;;;3.13;;
65073;SDS011;52218;51.224;-2.328;2022-12-08T06:54:24;5.28;;;3.00;;
65073;SDS011;52218;51.224;-2.328;2022-12-08T06:58:06;5.03;;;3.05;;
65073;SDS011;52218;51.224;-2.328;2022-12-08T07:01:48;5.70;;;2.92;;
65073;SDS011;52218;51.224;-2.328;2022-12-08T07:05:30;4.72;;;2.97;;
65073;SDS011;52218;51.224;-2.328;2022-12-08T07:09:12;7.30;;;3.30;;
65073;SDS011;52218;51.224;-2.328;2022-12-08T07:12:54;5.65;;;3.20;;
65073;SDS011;52218;51.224;-2.328;2022-12-08T07:16:36;4.28;;;2.65;;
65073;SDS011;52218;51.224;-2.328;2022-12-08T07:20:19;5.53;;;3.33;;
65073;SDS011;52218;51.224;-2.328;2022-12-08T07:24:01;5.28;;;2.88;;
65073;SDS011;52218;51.224;-2.328;2022-12-08T07:27:44;5.13;;;3.28;;
65073;SDS011;52218;51.224;-2.328;2022-12-08T07:31:26;4.28;;;3.20;;
65073;SDS011;52218;51.224;-2.328;2022-12-08T07:35:09;5.82;;;2.75;;
65073;SDS011;52218;51.224;-2.328;2022-12-08T07:38:51;5.10;;;3.10;;
65073;SDS011;52218;51.224;-2.328;2022-12-08T07:42:34;3.42;;;2.50;;
65073;SDS011;52218;51.224;-2.328;2022-12-08T07:46:18;5.95;;;2.75;;
65073;SDS011;52218;51.224;-2.328;2022-12-08T07:50:02;5.65;;;2.70;;
65073;SDS011;52218;51.224;-2.328;2022-12-08T07:53:46;6.18;;;3.00;;
65073;SDS011;52218;51.224;-2.328;2022-12-08T07:57:34;5.57;;;3.53;;
65073;SDS011;52218;51.224;-2.328;2022-12-08T08:01:35;8.32;;;3.63;;
65073;SDS011;52218;51.224;-2.328;2022-12-08T08:05:17;6.07;;;3.25;;
65073;SDS011;52218;51.224;-2.328;2022-12-08T08:09:00;6.55;;;3.40;;
65073;SDS011;52218;51.224;-2.328;2022-12-08T08:12:42;5.65;;;3.60;;
65073;SDS011;52218;51.224;-2.328;2022-12-08T08:16:24;4.95;;;3.08;;
65073;SDS011;52218;51.224;-2.328;2022-12-08T08:20:06;6.90;;;2.95;;
65073;SDS011;52218;51.224;-2.328;2022-12-08T08:23:49;5.50;;;3.78;;
65073;SDS011;52218;51.224;-2.328;2022-12-08T08:27:31;5.05;;;2.92;;
65073;SDS011;52218;51.224;-2.328;2022-12-08T08:31:14;4.95;;;2.75;;
65073;SDS011;52218;51.224;-2.328;2022-12-08T08:34:56;8.68;;;3.55;;
65073;SDS011;52218;51.224;-2.328;2022-12-08T08:38:38;8.05;;;3.85;;
65073;SDS011;52218;51.224;-2.328;2022-12-08T08:42:20;6.35;;;3.78;;
65073;SDS011;52218;51.224;-2.328;2022-12-08T08:46:02;6.72;;;3.55;;
65073;SDS011;52218;51.224;-2.328;2022-12-08T08:49:45;12.05;;;4.47;;
65073;SDS011;52218;51.224;-2.328;2022-12-08T08:53:27;8.10;;;4.07;;
65073;SDS011;52218;51.224;-2.328;2022-12-08T08:57:09;5.60;;;3.65;;
65073;SDS011;52218;51.224;-2.328;2022-12-08T09:00:52;6.97;;;4.13;;
65073;SDS011;52218;51.224;-2.328;2022-12-08T09:04:34;9.13;;;4.13;;
65073;SDS011;52218;51.224;-2.328;2022-12-08T09:08:16;9.70;;;3.80;;
65073;SDS011;52218;51.224;-2.328;2022-12-08T09:11:59;10.05;;;3.97;;
65073;SDS011;52218;51.224;-2.328;2022-12-08T09:15:41;7.28;;;3.97;;
65073;SDS011;52218;51.224;-2.328;2022-12-08T09:19:23;5.90;;;4.03;;
65073;SDS011;52218;51.224;-2.328;2022-12-08T09:23:05;7.85;;;4.03;;
65073;SDS011;52218;51.224;-2.328;2022-12-08T09:26:47;8.65;;;3.88;;
65073;SDS011;52218;51.224;-2.328;2022-12-08T09:30:29;7.10;;;3.78;;
65073;SDS011;52218;51.224;-2.328;2022-12-08T09:34:11;6.68;;;4.00;;
65073;SDS011;52218;51.224;-2.328;2022-12-08T09:37:53;6.70;;;3.90;;
65073;SDS011;52218;51.224;-2.328;2022-12-08T09:41:43;4.88;;;3.13;;
65073;SDS011;52218;51.224;-2.328;2022-12-08T09:45:32;6.43;;;3.33;;
65073;SDS011;52218;51.224;-2.328;2022-12-08T09:49:17;5.47;;;3.20;;
65073;SDS011;52218;51.224;-2.328;2022-12-08T09:53:03;5.10;;;3.58;;
65073;SDS011;52218;51.224;-2.328;2022-12-08T09:57:16;4.75;;;3.47;;
65073;SDS011;52218;51.224;-2.328;2022-12-08T10:01:01;5.80;;;3.70;;
65073;SDS011;52218;51.224;-2.328;2022-12-08T10:04:43;6.25;;;3.88;;
65073;SDS011;52218;51.224;-2.328;2022-12-08T10:08:28;7.30;;;3.65;;
65073;SDS011;52218;51.224;-2.328;2022-12-08T10:20:15;4.47;;;2.80;;
65073;SDS011;52218;51.224;-2.328;2022-12-08T10:24:00;5.63;;;2.65;;
65073;SDS011;52218;51.224;-2.328;2022-12-08T10:27:52;4.53;;;3.00;;
65073;SDS011;52218;51.224;-2.328;2022-12-08T10:31:35;4.55;;;2.75;;
65073;SDS011;52218;51.224;-2.328;2022-12-08T10:35:18;5.05;;;2.75;;
65073;SDS011;52218;51.224;-2.328;2022-12-08T10:39:04;3.63;;;2.90;;
65073;SDS011;52218;51.224;-2.328;2022-12-08T10:43:27;4.00;;;2.88;;
65073;SDS011;52218;51.224;-2.328;2022-12-08T10:47:12;3.70;;;2.50;;
65073;SDS011;52218;51.224;-2.328;2022-12-08T10:50:55;4.85;;;2.58;;
65073;SDS011;52218;51.224;-2.328;2022-12-08T10:54:41;3.40;;;2.70;;
65073;SDS011;52218;51.224;-2.328;2022-12-08T11:02:21;3.30;;;2.33;;
65073;SDS011;52218;51.224;-2.328;2022-12-08T11:06:38;3.58;;;2.15;;
65073;SDS011;52218;51.224;-2.328;2022-12-08T11:10:18;6.18;;;2.65;;
65073;SDS011;52218;51.224;-2.328;2022-12-08T11:14:05;4.40;;;2.20;;
65073;SDS011;52218;51.224;-2.328;2022-12-08T11:17:58;4.13;;;2.30;;
65073;SDS011;52218;51.224;-2.328;2022-12-08T11:22:00;3.78;;;2.13;;
65073;SDS011;52218;51.224;-2.328;2022-12-08T11:25:42;3.53;;;2.22;;
65073;SDS011;52218;51.224;-2.328;2022-12-08T11:29:25;3.97;;;2.20;;
65073;SDS011;52218;51.224;-2.328;2022-12-08T11:33:16;3.10;;;2.20;;
65073;SDS011;52218;51.224;-2.328;2022-12-08T11:37:04;7.32;;;2.50;;
65073;SDS011;52218;51.224;-2.328;2022-12-08T11:40:52;3.38;;;2.00;;
65073;SDS011;52218;51.224;-2.328;2022-12-08T11:44:48;4.40;;;2.13;;
65073;SDS011;52218;51.224;-2.328;2022-12-08T11:48:46;5.43;;;2.17;;
65073;SDS011;52218;51.224;-2.328;2022-12-08T11:52:37;2.58;;;1.85;;
65073;SDS011;52218;51.224;-2.328;2022-12-08T12:00:20;2.42;;;1.70;;
65073;SDS011;52218;51.224;-2.328;2022-12-08T12:08:06;2.05;;;1.48;;
65073;SDS011;52218;51.224;-2.328;2022-12-08T12:28:06;4.50;;;1.23;;
65073;SDS011;52218;51.224;-2.328;2022-12-08T12:31:55;3.97;;;1.38;;
65073;SDS011;52218;51.224;-2.328;2022-12-08T12:35:41;2.85;;;1.20;;
65073;SDS011;52218;51.224;-2.328;2022-12-08T12:39:29;2.65;;;1.50;;
65073;SDS011;52218;51.224;-2.328;2022-12-08T12:43:23;2.38;;;1.10;;
65073;SDS011;52218;51.224;-2.328;2022-12-08T12:47:10;3.22;;;1.50;;
65073;SDS011;52218;51.224;-2.328;2022-12-08T12:50:53;3.03;;;1.63;;
65073;SDS011;52218;51.224;-2.328;2022-12-08T12:54:37;3.83;;;1.90;;
65073;SDS011;52218;51.224;-2.328;2022-12-08T13:06:21;1.92;;;1.50;;
65073;SDS011;52218;51.224;-2.328;2022-12-08T13:14:00;2.65;;;1.35;;
65073;SDS011;52218;51.224;-2.328;2022-12-08T13:17:45;2.97;;;1.50;;
65073;SDS011;52218;51.224;-2.328;2022-12-08T13:21:32;2.90;;;1.42;;
65073;SDS011;52218;51.224;-2.328;2022-12-08T13:26:07;2.83;;;1.20;;
65073;SDS011;52218;51.224;-2.328;2022-12-08T13:29:22;4.03;;;1.42;;
65073;SDS011;52218;51.224;-2.328;2022-12-08T13:33:16;2.78;;;1.42;;
65073;SDS011;52218;51.224;-2.328;2022-12-08T13:40:54;2.10;;;1.33;;
65073;SDS011;52218;51.224;-2.328;2022-12-08T13:48:54;2.33;;;1.40;;
65073;SDS011;52218;51.224;-2.328;2022-12-08T13:52:59;2.95;;;1.40;;
65073;SDS011;52218;51.224;-2.328;2022-12-08T13:57:05;3.95;;;1.50;;
65073;SDS011;52218;51.224;-2.328;2022-12-08T14:00:55;2.78;;;1.70;;
65073;SDS011;52218;51.224;-2.328;2022-12-08T14:04:47;3.20;;;1.77;;
65073;SDS011;52218;51.224;-2.328;2022-12-08T14:08:53;2.92;;;1.85;;
65073;SDS011;52218;51.224;-2.328;2022-12-08T14:12:51;3.20;;;1.88;;
65073;SDS011;52218;51.224;-2.328;2022-12-08T14:16:38;3.25;;;2.10;;
65073;SDS011;52218;51.224;-2.328;2022-12-08T14:20:33;4.45;;;2.10;;
65073;SDS011;52218;51.224;-2.328;2022-12-08T14:24:35;3.60;;;1.98;;
65073;SDS011;52218;51.224;-2.328;2022-12-08T14:28:19;3.97;;;2.30;;
65073;SDS011;52218;51.224;-2.328;2022-12-08T14:32:02;4.53;;;2.00;;
65073;SDS011;52218;51.224;-2.328;2022-12-08T14:36:05;5.15;;;2.17;;
65073;SDS011;52218;51.224;-2.328;2022-12-08T14:39:50;4.05;;;2.15;;
65073;SDS011;52218;51.224;-2.328;2022-12-08T14:43:33;4.47;;;1.95;;
65073;SDS011;52218;51.224;-2.328;2022-12-08T14:47:17;4.97;;;1.70;;
65073;SDS011;52218;51.224;-2.328;2022-12-08T14:55:06;2.65;;;1.80;;
65073;SDS011;52218;51.224;-2.328;2022-12-08T14:58:49;4.25;;;1.98;;
65073;SDS011;52218;51.224;-2.328;2022-12-08T15:02:57;4.07;;;1.75;;
65073;SDS011;52218;51.224;-2.328;2022-12-08T15:07:03;5.60;;;1.80;;
65073;SDS011;52218;51.224;-2.328;2022-12-08T15:11:10;3.22;;;1.70;;
65073;SDS011;52218;51.224;-2.328;2022-12-08T15:15:15;3.30;;;2.00;;
65073;SDS011;52218;51.224;-2.328;2022-12-08T15:19:02;3.50;;;2.25;;
65073;SDS011;52218;51.224;-2.328;2022-12-08T15:22:57;4.40;;;2.10;;
65073;SDS011;52218;51.224;-2.328;2022-12-08T15:26:46;3.92;;;2.30;;
65073;SDS011;52218;51.224;-2.328;2022-12-08T15:30:30;5.88;;;2.78;;
65073;SDS011;52218;51.224;-2.328;2022-12-08T15:34:12;5.18;;;2.80;;
65073;SDS011;52218;51.224;-2.328;2022-12-08T15:37:54;3.95;;;2.33;;
65073;SDS011;52218;51.224;-2.328;2022-12-08T15:41:36;4.63;;;2.22;;
65073;SDS011;52218;51.224;-2.328;2022-12-08T15:45:18;7.05;;;2.45;;
65073;SDS011;52218;51.224;-2.328;2022-12-08T15:49:41;6.55;;;2.50;;
65073;SDS011;52218;51.224;-2.328;2022-12-08T15:53:16;5.85;;;2.92;;
65073;SDS011;52218;51.224;-2.328;2022-12-08T15:56:58;3.58;;;2.60;;
65073;SDS011;52218;51.224;-2.328;2022-12-08T16:01:00;5.13;;;3.10;;
65073;SDS011;52218;51.224;-2.328;2022-12-08T16:04:42;6.00;;;2.85;;
65073;SDS011;52218;51.224;-2.328;2022-12-08T16:08:44;6.28;;;3.50;;
65073;SDS011;52218;51.224;-2.328;2022-12-08T16:12:46;6.28;;;2.88;;
65073;SDS011;52218;51.224;-2.328;2022-12-08T16:17:11;4.63;;;2.70;;
65073;SDS011;52218;51.224;-2.328;2022-12-08T16:20:54;5.35;;;3.15;;
65073;SDS011;52218;51.224;-2.328;2022-12-08T16:24:57;3.92;;;2.75;;
65073;SDS011;52218;51.224;-2.328;2022-12-08T16:28:57;4.72;;;3.15;;
65073;SDS011;52218;51.224;-2.328;2022-12-08T16:32:39;4.22;;;3.08;;
65073;SDS011;52218;51.224;-2.328;2022-12-08T16:36:21;6.38;;;4.93;;
65073;SDS011;52218;51.224;-2.328;2022-12-08T16:40:04;9.40;;;5.90;;
65073;SDS011;52218;51.224;-2.328;2022-12-08T16:43:47;8.70;;;5.57;;
65073;SDS011;52218;51.224;-2.328;2022-12-08T16:47:31;8.27;;;5.40;;
65073;SDS011;52218;51.224;-2.328;2022-12-08T16:51:14;7.00;;;4.40;;
65073;SDS011;52218;51.224;-2.328;2022-12-08T16:55:01;8.35;;;4.47;;
65073;SDS011;52218;51.224;-2.328;2022-12-08T16:58:43;7.05;;;4.57;;
65073;SDS011;52218;51.224;-2.328;2022-12-08T17:02:27;8.18;;;4.38;;
65073;SDS011;52218;51.224;-2.328;2022-12-08T17:06:16;8.02;;;4.07;;
65073;SDS011;52218;51.224;-2.328;2022-12-08T17:10:01;7.75;;;5.00;;
65073;SDS011;52218;51.224;-2.328;2022-12-08T17:13:47;6.47;;;4.55;;
65073;SDS011;52218;51.224;-2.328;2022-12-08T17:17:30;5.70;;;4.03;;
65073;SDS011;52218;51.224;-2.328;2022-12-08T17:21:13;5.40;;;3.78;;
65073;SDS011;52218;51.224;-2.328;2022-12-08T17:24:56;7.35;;;4.63;;
65073;SDS011;52218;51.224;-2.328;2022-12-08T17:28:42;7.95;;;3.88;;
65073;SDS011;52218;51.224;-2.328;2022-12-08T17:32:41;6.20;;;3.83;;
65073;SDS011;52218;51.224;-2.328;2022-12-08T17:36:24;4.60;;;3.53;;
65073;SDS011;52218;51.224;-2.328;2022-12-08T17:40:06;6.65;;;4.10;;
65073;SDS011;52218;51.224;-2.328;2022-12-08T17:43:49;5.78;;;4.00;;
65073;SDS011;52218;51.224;-2.328;2022-12-08T17:47:31;5.72;;;4.10;;
65073;SDS011;52218;51.224;-2.328;2022-12-08T17:51:13;8.32;;;4.28;;
65073;SDS011;52218;51.224;-2.328;2022-12-08T17:54:55;5.25;;;3.45;;
65073;SDS011;52218;51.224;-2.328;2022-12-08T17:58:37;6.13;;;4.30;;
65073;SDS011;52218;51.224;-2.328;2022-12-08T18:02:19;6.88;;;4.32;;
65073;SDS011;52218;51.224;-2.328;2022-12-08T18:06:08;5.47;;;3.80;;
65073;SDS011;52218;51.224;-2.328;2022-12-08T18:09:51;8.68;;;4.60;;
65073;SDS011;52218;51.224;-2.328;2022-12-08T18:13:33;6.97;;;4.25;;
65073;SDS011;52218;51.224;-2.328;2022-12-08T18:17:15;5.75;;;4.32;;
65073;SDS011;52218;51.224;-2.328;2022-12-08T18:20:57;6.32;;;3.85;;
65073;SDS011;52218;51.224;-2.328;2022-12-08T18:24:39;6.28;;;4.25;;
65073;SDS011;52218;51.224;-2.328;2022-12-08T18:28:22;7.70;;;4.38;;
65073;SDS011;52218;51.224;-2.328;2022-12-08T18:32:04;7.00;;;4.38;;
65073;SDS011;52218;51.224;-2.328;2022-12-08T18:35:46;5.68;;;3.85;;
65073;SDS011;52218;51.224;-2.328;2022-12-08T18:39:29;6.57;;;3.90;;
65073;SDS011;52218;51.224;-2.328;2022-12-08T18:43:13;7.18;;;3.97;;
65073;SDS011;52218;51.224;-2.328;2022-12-08T18:46:55;6.93;;;3.97;;
65073;SDS011;52218;51.224;-2.328;2022-12-08T18:50:39;7.35;;;4.10;;
65073;SDS011;52218;51.224;-2.328;2022-12-08T18:54:23;8.70;;;4.55;;
65073;SDS011;52218;51.224;-2.328;2022-12-08T18:58:25;8.15;;;5.32;;
65073;SDS011;52218;51.224;-2.328;2022-12-08T19:02:08;7.43;;;4.97;;
65073;SDS011;52218;51.224;-2.328;2022-12-08T19:06:02;7.88;;;4.93;;
65073;SDS011;52218;51.224;-2.328;2022-12-08T19:09:45;8.55;;;5.43;;
65073;SDS011;52218;51.224;-2.328;2022-12-08T19:13:27;7.75;;;5.22;;
65073;SDS011;52218;51.224;-2.328;2022-12-08T19:17:09;6.78;;;4.40;;
65073;SDS011;52218;51.224;-2.328;2022-12-08T19:20:51;7.03;;;4.25;;
65073;SDS011;52218;51.224;-2.328;2022-12-08T19:24:37;6.40;;;4.55;;
65073;SDS011;52218;51.224;-2.328;2022-12-08T19:28:19;6.00;;;4.68;;
65073;SDS011;52218;51.224;-2.328;2022-12-08T19:32:01;6.97;;;5.15;;
65073;SDS011;52218;51.224;-2.328;2022-12-08T19:35:45;7.88;;;4.80;;
65073;SDS011;52218;51.224;-2.328;2022-12-08T19:39:33;5.32;;;4.22;;
65073;SDS011;52218;51.224;-2.328;2022-12-08T19:43:33;8.00;;;4.78;;
65073;SDS011;52218;51.224;-2.328;2022-12-08T19:47:34;7.75;;;5.30;;
65073;SDS011;52218;51.224;-2.328;2022-12-08T19:51:16;7.85;;;5.68;;
65073;SDS011;52218;51.224;-2.328;2022-12-08T19:54:58;8.52;;;5.30;;
65073;SDS011;52218;51.224;-2.328;2022-12-08T19:58:40;7.70;;;5.00;;
65073;SDS011;52218;51.224;-2.328;2022-12-08T20:02:22;7.22;;;4.55;;
65073;SDS011;52218;51.224;-2.328;2022-12-08T20:06:04;7.07;;;3.78;;
65073;SDS011;52218;51.224;-2.328;2022-12-08T20:09:47;6.75;;;4.03;;
65073;SDS011;52218;51.224;-2.328;2022-12-08T20:13:29;6.57;;;5.13;;
65073;SDS011;52218;51.224;-2.328;2022-12-08T20:17:26;6.25;;;4.50;;
65073;SDS011;52218;51.224;-2.328;2022-12-08T20:21:08;6.63;;;4.00;;
65073;SDS011;52218;51.224;-2.328;2022-12-08T20:24:51;7.55;;;4.13;;
65073;SDS011;52218;51.224;-2.328;2022-12-08T20:28:41;6.55;;;4.28;;
65073;SDS011;52218;51.224;-2.328;2022-12-08T20:32:23;5.93;;;4.25;;
65073;SDS011;52218;51.224;-2.328;2022-12-08T20:36:05;5.57;;;3.65;;
65073;SDS011;52218;51.224;-2.328;2022-12-08T20:39:48;6.78;;;3.75;;
65073;SDS011;52218;51.224;-2.328;2022-12-08T20:43:30;5.00;;;3.85;;
65073;SDS011;52218;51.224;-2.328;2022-12-08T20:47:12;5.30;;;4.15;;
65073;SDS011;52218;51.224;-2.328;2022-12-08T20:50:54;6.93;;;4.50;;
65073;SDS011;52218;51.224;-2.328;2022-12-08T20:54:36;6.10;;;4.75;;
65073;SDS011;52218;51.224;-2.328;2022-12-08T20:58:19;7.05;;;5.07;;
65073;SDS011;52218;51.224;-2.328;2022-12-08T21:02:01;7.47;;;4.53;;
65073;SDS011;52218;51.224;-2.328;2022-12-08T21:05:50;6.53;;;4.70;;
65073;SDS011;52218;51.224;-2.328;2022-12-08T21:09:33;10.27;;;5.72;;
65073;SDS011;52218;51.224;-2.328;2022-12-08T21:13:16;8.88;;;5.70;;
65073;SDS011;52218;51.224;-2.328;2022-12-08T21:16:58;8.88;;;5.70;;
65073;SDS011;52218;51.224;-2.328;2022-12-08T21:20:40;8.95;;;6.47;;
65073;SDS011;52218;51.224;-2.328;2022-12-08T21:24:23;10.13;;;6.93;;
65073;SDS011;52218;51.224;-2.328;2022-12-08T21:28:13;9.35;;;5.43;;
65073;SDS011;52218;51.224;-2.328;2022-12-08T21:31:56;10.35;;;5.57;;
65073;SDS011;52218;51.224;-2.328;2022-12-08T21:35:40;9.38;;;6.57;;
65073;SDS011;52218;51.224;-2.328;2022-12-08T21:39:22;10.45;;;6.20;;
65073;SDS011;52218;51.224;-2.328;2022-12-08T21:43:05;9.65;;;5.78;;
65073;SDS011;52218;51.224;-2.328;2022-12-08T21:46:47;7.97;;;6.03;;
65073;SDS011;52218;51.224;-2.328;2022-12-08T21:50:29;8.80;;;5.70;;
65073;SDS011;52218;51.224;-2.328;2022-12-08T21:54:12;9.75;;;6.32;;
65073;SDS011;52218;51.224;-2.328;2022-12-08T21:57:59;10.52;;;6.32;;
65073;SDS011;52218;51.224;-2.328;2022-12-08T22:01:42;9.65;;;6.30;;
65073;SDS011;52218;51.224;-2.328;2022-12-08T22:05:24;9.63;;;6.80;;
65073;SDS011;52218;51.224;-2.328;2022-12-08T22:09:07;10.20;;;6.57;;
65073;SDS011;52218;51.224;-2.328;2022-12-08T22:12:52;10.65;;;7.05;;
65073;SDS011;52218;51.224;-2.328;2022-12-08T22:16:34;8.93;;;6.10;;
65073;SDS011;52218;51.224;-2.328;2022-12-08T22:20:16;7.40;;;5.10;;
65073;SDS011;52218;51.224;-2.328;2022-12-08T22:23:59;7.40;;;4.63;;
65073;SDS011;52218;51.224;-2.328;2022-12-08T22:27:41;6.50;;;4.53;;
65073;SDS011;52218;51.224;-2.328;2022-12-08T22:31:23;7.88;;;4.63;;
65073;SDS011;52218;51.224;-2.328;2022-12-08T22:35:06;8.23;;;4.88;;
65073;SDS011;52218;51.224;-2.328;2022-12-08T22:38:49;6.30;;;4.85;;
65073;SDS011;52218;51.224;-2.328;2022-12-08T22:42:32;8.35;;;5.05;;
65073;SDS011;52218;51.224;-2.328;2022-12-08T22:46:16;7.13;;;5.03;;
65073;SDS011;52218;51.224;-2.328;2022-12-08T22:50:04;6.50;;;4.70;;
65073;SDS011;52218;51.224;-2.328;2022-12-08T22:53:47;7.38;;;5.03;;
65073;SDS011;52218;51.224;-2.328;2022-12-08T22:57:29;6.63;;;4.93;;
65073;SDS011;52218;51.224;-2.328;2022-12-08T23:01:22;8.55;;;5.60;;
65073;SDS011;52218;51.224;-2.328;2022-12-08T23:05:10;8.40;;;5.20;;
65073;SDS011;52218;51.224;-2.328;2022-12-08T23:08:53;7.70;;;5.28;;
65073;SDS011;52218;51.224;-2.328;2022-12-08T23:12:35;8.45;;;5.65;;
65073;SDS011;52218;51.224;-2.328;2022-12-08T23:16:18;8.05;;;5.43;;
65073;SDS011;52218;51.224;-2.328;2022-12-08T23:20:00;7.53;;;5.13;;
65073;SDS011;52218;51.224;-2.328;2022-12-08T23:23:42;8.07;;;5.68;;
65073;SDS011;52218;51.224;-2.328;2022-12-08T23:27:25;9.32;;;5.75;;
65073;SDS011;52218;51.224;-2.328;2022-12-08T23:31:07;8.32;;;6.22;;
65073;SDS011;52218;51.224;-2.328;2022-12-08T23:34:51;11.23;;;6.38;;
65073;SDS011;52218;51.224;-2.328;2022-12-08T23:38:33;12.60;;;7.03;;
65073;SDS011;52218;51.224;-2.328;2022-12-08T23:42:15;12.05;;;7.55;;
65073;SDS011;52218;51.224;-2.328;2022-12-08T23:45:57;10.48;;;7.60;;
65073;SDS011;52218;51.224;-2.328;2022-12-08T23:49:40;12.27;;;7.72;;
65073;SDS011;52218;51.224;-2.328;2022-12-08T23:53:22;12.30;;;8.00;;
65073;SDS011;52218;51.224;-2.328;2022-12-08T23:57:04;14.15;;;8.25;;
